createdAt,value
2023-03-17T00:02:11.011Z,24.67
2023-03-17T00:04:38.303Z,24.20
2023-03-17T00:07:10.741Z,22.77
2023-03-17T00:09:38.390Z,21.80
2023-03-17T00:12:11.266Z,21.77
2023-03-17T00:14:39.294Z,21.00
2023-03-17T00:17:06.663Z,20.47
2023-03-17T00:19:35.287Z,19.10
2023-03-17T00:22:06.103Z,19.53
2023-03-17T00:24:35.708Z,20.33
2023-03-17T00:27:05.199Z,19.77
2023-03-17T00:29:34.570Z,19.47
2023-03-17T00:32:14.970Z,19.30
2023-03-17T00:34:42.906Z,20.37
2023-03-17T00:37:15.484Z,20.00
2023-03-17T00:39:45.061Z,18.70
2023-03-17T00:42:12.336Z,19.70
2023-03-17T00:44:41.536Z,19.53
2023-03-17T00:47:11.862Z,20.73
2023-03-17T00:49:45.942Z,20.47
2023-03-17T00:52:14.506Z,18.17
2023-03-17T00:54:42.864Z,18.07
2023-03-17T00:57:13.408Z,19.10
2023-03-17T00:59:44.076Z,20.53
2023-03-17T01:02:17.553Z,20.10
2023-03-17T01:05:05.507Z,20.83
2023-03-17T01:07:48.752Z,20.50
2023-03-17T01:10:26.165Z,20.90
2023-03-17T01:12:55.572Z,20.07
2023-03-17T01:15:25.729Z,20.50
2023-03-17T01:17:57.759Z,21.03
2023-03-17T01:20:32.375Z,20.90
2023-03-17T01:23:03.178Z,24.23
2023-03-17T01:25:33.382Z,27.03
2023-03-17T01:28:01.297Z,26.53
2023-03-17T01:30:38.801Z,26.70
2023-03-17T01:33:08.551Z,28.40
2023-03-17T01:35:38.357Z,27.70
2023-03-17T01:38:06.889Z,27.43
2023-03-17T01:40:37.079Z,27.03
2023-03-17T01:43:29.615Z,28.03
2023-03-17T01:46:29.350Z,29.00
2023-03-17T01:49:23.878Z,28.63
2023-03-17T01:51:57.509Z,29.53
2023-03-17T01:54:40.875Z,30.37
2023-03-17T01:57:18.987Z,30.53
2023-03-17T01:59:52.585Z,30.60
2023-03-17T02:02:25.751Z,31.23
2023-03-17T02:04:53.212Z,31.67
2023-03-17T02:07:22.260Z,31.00
2023-03-17T02:09:49.993Z,31.77
2023-03-17T02:12:24.639Z,31.10
2023-03-17T02:14:52.897Z,32.03
2023-03-17T02:17:25.088Z,31.33
2023-03-17T02:19:52.390Z,32.27
2023-03-17T02:22:23.139Z,32.80
2023-03-17T02:24:57.187Z,33.67
2023-03-17T02:27:36.260Z,31.87
2023-03-17T02:30:09.067Z,33.70
2023-03-17T02:32:37.506Z,33.77
2023-03-17T02:35:07.342Z,34.53
2023-03-17T02:37:37.931Z,33.63
2023-03-17T02:40:12.288Z,34.17
2023-03-17T02:42:44.709Z,34.80
2023-03-17T02:45:19.798Z,34.60
2023-03-17T02:47:49.373Z,37.03
2023-03-17T02:50:26.065Z,37.17
2023-03-17T02:52:56.082Z,38.93
2023-03-17T02:55:23.394Z,38.20
2023-03-17T02:57:51.566Z,38.30
2023-03-17T03:00:19.632Z,39.17
2023-03-17T03:02:47.095Z,40.07
2023-03-17T03:05:13.969Z,39.80
2023-03-17T03:07:42.532Z,39.40
2023-03-17T03:10:10.519Z,39.37
2023-03-17T03:12:37.444Z,41.53
2023-03-17T03:15:09.082Z,41.80
2023-03-17T03:17:35.936Z,41.93
2023-03-17T03:20:04.055Z,42.30
2023-03-17T03:22:30.937Z,41.67
2023-03-17T03:24:59.925Z,42.77
2023-03-17T03:27:27.476Z,42.47
2023-03-17T03:29:55.875Z,43.30
2023-03-17T03:32:22.739Z,43.23
2023-03-17T03:34:49.757Z,43.70
2023-03-17T03:37:16.699Z,42.83
2023-03-17T03:39:43.586Z,43.10
2023-03-17T03:42:10.557Z,45.43
2023-03-17T03:44:37.577Z,45.90
2023-03-17T03:47:04.658Z,45.63
2023-03-17T03:49:31.515Z,46.83
2023-03-17T03:51:58.746Z,47.40
2023-03-17T03:54:25.845Z,48.43
2023-03-17T03:56:52.750Z,49.17
2023-03-17T03:59:19.691Z,47.73
2023-03-17T04:01:46.670Z,48.37
2023-03-17T04:04:13.535Z,49.13
2023-03-17T04:06:40.594Z,47.50
2023-03-17T04:09:07.594Z,47.53
2023-03-17T04:11:34.917Z,47.90
2023-03-17T04:14:02.113Z,48.93
2023-03-17T04:16:30.856Z,48.63
2023-03-17T04:18:58.336Z,47.97
2023-03-17T04:21:26.483Z,48.00
2023-03-17T04:23:54.899Z,47.80
2023-03-17T04:26:23.368Z,47.63
2023-03-17T04:28:52.841Z,47.33
2023-03-17T04:31:22.463Z,48.63
2023-03-17T04:33:51.257Z,47.70
2023-03-17T04:36:21.739Z,47.90
2023-03-17T04:38:49.055Z,45.67
2023-03-17T04:41:18.880Z,46.80
2023-03-17T04:43:46.268Z,45.57
2023-03-17T04:46:13.385Z,44.97
2023-03-17T04:48:46.459Z,44.83
2023-03-17T04:51:14.322Z,45.90
2023-03-17T04:53:51.701Z,45.33
2023-03-17T04:56:21.619Z,44.97
2023-03-17T04:58:49.165Z,43.63
2023-03-17T05:01:18.006Z,45.90
2023-03-17T05:03:46.715Z,43.73
2023-03-17T05:06:16.085Z,42.47
2023-03-17T05:08:47.416Z,42.50
2023-03-17T05:11:15.009Z,42.83
2023-03-17T05:13:42.335Z,44.10
2023-03-17T05:16:10.248Z,43.30
2023-03-17T05:18:38.896Z,43.83
2023-03-17T05:21:08.049Z,42.77
2023-03-17T05:23:36.960Z,43.27
2023-03-17T05:26:06.672Z,41.83
2023-03-17T05:28:36.502Z,43.27
2023-03-17T05:31:10.984Z,42.80
2023-03-17T05:33:41.490Z,41.87
2023-03-17T05:36:11.791Z,40.30
2023-03-17T05:38:38.757Z,40.90
2023-03-17T05:41:05.772Z,41.07
2023-03-17T05:43:32.647Z,41.40
2023-03-17T05:46:00.362Z,41.23
2023-03-17T05:48:27.363Z,40.60
2023-03-17T05:50:54.291Z,39.60
2023-03-17T05:53:23.950Z,44.73
2023-03-17T05:55:54.619Z,40.10
2023-03-17T05:58:23.219Z,39.47
2023-03-17T06:00:53.713Z,39.40
2023-03-17T06:03:22.339Z,38.07
2023-03-17T06:05:49.645Z,38.80
2023-03-17T06:08:17.059Z,37.43
2023-03-17T06:10:44.913Z,36.10
2023-03-17T06:13:11.910Z,35.33
2023-03-17T06:15:42.123Z,35.60
2023-03-17T06:18:09.451Z,34.50
2023-03-17T06:20:37.758Z,34.37
2023-03-17T06:23:06.058Z,35.40
2023-03-17T06:25:34.707Z,35.70
2023-03-17T06:28:03.807Z,34.97
2023-03-17T06:30:35.254Z,33.27
2023-03-17T06:33:03.728Z,32.53
2023-03-17T06:35:36.293Z,34.10
2023-03-17T06:38:06.768Z,33.97
2023-03-17T06:40:35.275Z,33.47
2023-03-17T06:43:03.090Z,35.63
2023-03-17T06:45:32.957Z,35.57
2023-03-17T06:48:02.362Z,34.20
2023-03-17T06:50:32.482Z,32.73
2023-03-17T06:53:04.299Z,32.67
2023-03-17T06:55:32.064Z,32.73
2023-03-17T06:58:00.101Z,32.03
2023-03-17T07:00:28.853Z,31.03
2023-03-17T07:03:01.217Z,31.03
2023-03-17T07:05:30.012Z,30.33
2023-03-17T07:07:59.319Z,30.77
2023-03-17T07:10:27.159Z,30.30
2023-03-17T07:12:58.573Z,29.33
2023-03-17T07:15:35.992Z,29.97
2023-03-17T07:18:04.339Z,29.90
2023-03-17T07:20:34.057Z,30.60
2023-03-17T07:23:01.319Z,29.93
2023-03-17T07:25:28.455Z,30.00
2023-03-17T07:27:56.652Z,30.87
2023-03-17T07:30:23.592Z,29.93
2023-03-17T07:32:50.616Z,30.03
2023-03-17T07:35:19.292Z,30.17
2023-03-17T07:37:47.480Z,27.30
2023-03-17T07:40:14.477Z,26.87
2023-03-17T07:42:45.552Z,27.90
2023-03-17T07:45:12.917Z,27.17
2023-03-17T07:47:39.949Z,26.17
2023-03-17T07:50:07.088Z,28.00
2023-03-17T07:52:35.154Z,26.67
2023-03-17T07:55:02.659Z,26.40
2023-03-17T07:57:29.979Z,27.30
2023-03-17T07:59:58.810Z,26.07
2023-03-17T08:02:27.476Z,26.40
2023-03-17T08:04:57.025Z,27.67
2023-03-17T08:07:24.671Z,26.97
2023-03-17T08:09:53.689Z,24.70
2023-03-17T08:12:22.536Z,24.90
2023-03-17T08:14:52.696Z,24.13
2023-03-17T08:17:19.889Z,24.17
2023-03-17T08:19:48.399Z,22.40
2023-03-17T08:22:18.231Z,21.47
2023-03-17T08:24:47.018Z,22.00
2023-03-17T08:27:14.770Z,21.70
2023-03-17T08:29:42.590Z,21.23
2023-03-17T08:32:10.802Z,21.07
2023-03-17T08:34:39.692Z,20.53
2023-03-17T08:37:11.300Z,19.77
2023-03-17T08:39:38.513Z,18.23
2023-03-17T08:42:07.304Z,16.97
2023-03-17T08:44:44.165Z,18.00
2023-03-17T08:47:12.346Z,16.57
2023-03-17T08:49:42.375Z,17.47
2023-03-17T08:52:11.969Z,17.10
2023-03-17T08:54:51.091Z,17.07
2023-03-17T08:57:19.544Z,17.07
2023-03-17T09:00:01.375Z,17.87
2023-03-17T09:02:30.423Z,16.40
2023-03-17T09:04:59.867Z,15.83
2023-03-17T09:07:27.310Z,15.43
2023-03-17T09:09:54.196Z,15.70
2023-03-17T09:12:28.492Z,15.47
2023-03-17T09:15:16.725Z,16.97
2023-03-17T09:17:43.969Z,16.13
2023-03-17T09:20:15.001Z,16.20
2023-03-17T09:22:42.172Z,15.60
2023-03-17T09:25:09.460Z,15.07
2023-03-17T09:27:36.993Z,14.33
2023-03-17T09:30:05.952Z,13.67
2023-03-17T09:32:35.748Z,11.70
2023-03-17T09:35:07.399Z,12.33
2023-03-17T09:37:40.342Z,12.57
2023-03-17T09:40:11.869Z,11.53
2023-03-17T09:42:56.618Z,11.43
2023-03-17T09:45:49.798Z,11.60
2023-03-17T09:48:19.867Z,12.57
2023-03-17T09:50:59.719Z,11.27
2023-03-17T09:54:03.481Z,11.13
2023-03-17T09:56:34.919Z,11.15
2023-03-17T09:59:40.038Z,9.97
2023-03-17T10:02:35.775Z,9.80
2023-03-17T10:05:10.821Z,8.93
2023-03-17T10:07:56.765Z,9.03
2023-03-17T10:10:32.765Z,8.90
2023-03-17T10:13:37.613Z,8.73
2023-03-17T10:16:19.503Z,8.23
2023-03-17T10:18:57.701Z,8.17
2023-03-17T10:21:33.174Z,8.27
2023-03-17T10:24:01.720Z,7.97
2023-03-17T10:26:50.358Z,8.07
2023-03-17T10:29:23.998Z,7.70
2023-03-17T10:31:52.820Z,7.83
2023-03-17T10:34:23.969Z,7.47
2023-03-17T10:36:55.455Z,7.53
2023-03-17T10:39:25.322Z,7.73
2023-03-17T10:41:54.520Z,7.80
2023-03-17T10:44:54.626Z,7.27
2023-03-17T10:47:47.353Z,7.43
2023-03-17T10:50:32.138Z,7.37
2023-03-17T10:53:28.137Z,7.50
2023-03-17T10:56:07.374Z,7.90
2023-03-17T10:58:38.905Z,7.00
2023-03-17T11:01:08.399Z,7.83
2023-03-17T11:03:42.327Z,7.67
2023-03-17T11:06:11.669Z,7.77
2023-03-17T11:08:46.877Z,8.30
2023-03-17T11:11:33.194Z,7.80
2023-03-17T11:14:04.822Z,8.97
2023-03-17T11:16:37.345Z,8.67
2023-03-17T11:19:07.561Z,8.17
2023-03-17T11:22:07.079Z,8.70
2023-03-17T11:24:40.814Z,9.20
2023-03-17T11:27:19.210Z,8.33
2023-03-17T11:30:19.517Z,8.47
2023-03-17T11:33:11.782Z,7.50
2023-03-17T11:36:08.649Z,7.70
2023-03-17T11:38:43.405Z,8.50
2023-03-17T11:41:27.673Z,9.17
2023-03-17T11:44:42.305Z,8.53
2023-03-17T11:47:28.466Z,8.40
2023-03-17T11:50:39.377Z,9.53
2023-03-17T11:53:22.355Z,9.17
2023-03-17T11:56:01.711Z,8.93
2023-03-17T11:58:37.087Z,9.23
2023-03-17T12:01:09.378Z,8.63
2023-03-17T12:03:46.626Z,8.30
2023-03-17T12:06:20.602Z,9.97
2023-03-17T12:09:04.106Z,9.90
2023-03-17T12:11:39.663Z,10.17
2023-03-17T12:14:19.073Z,9.53
2023-03-17T12:17:13.066Z,10.23
2023-03-17T12:20:04.427Z,9.60
2023-03-17T12:22:56.954Z,10.23
2023-03-17T12:26:27.070Z,10.37
2023-03-17T12:29:05.350Z,10.80
2023-03-17T12:31:36.166Z,11.20
2023-03-17T12:34:15.791Z,11.20
2023-03-17T12:36:44.967Z,10.97
2023-03-17T12:39:19.312Z,11.60
2023-03-17T12:42:02.817Z,11.40
2023-03-17T12:44:33.112Z,11.60
2023-03-17T12:47:31.465Z,12.30
2023-03-17T12:50:32.981Z,11.73
2023-03-17T12:53:28.635Z,11.33
2023-03-17T12:56:16.530Z,10.93
2023-03-17T12:58:50.781Z,10.83
2023-03-17T13:01:41.149Z,11.13
2023-03-17T13:04:22.154Z,10.37
2023-03-17T13:07:23.298Z,10.27
2023-03-17T13:09:59.060Z,9.90
2023-03-17T13:13:03.957Z,10.30
2023-03-17T13:15:59.132Z,9.20
2023-03-17T13:18:50.363Z,8.83
2023-03-17T13:21:22.745Z,8.47
2023-03-17T13:24:22.364Z,8.60
2023-03-17T13:27:02.411Z,8.30
2023-03-17T13:29:36.170Z,8.20
2023-03-17T13:32:24.765Z,7.53
2023-03-17T13:34:55.933Z,7.47
2023-03-17T13:37:28.664Z,7.60
2023-03-17T13:40:14.366Z,7.57
2023-03-17T13:42:43.907Z,8.47
2023-03-17T13:45:25.185Z,7.57
2023-03-17T13:48:35.364Z,8.47
2023-03-17T13:51:22.079Z,9.30
2023-03-17T13:53:59.047Z,9.57
2023-03-17T13:56:45.269Z,9.67
2023-03-17T13:59:18.065Z,9.73
2023-03-17T14:01:52.815Z,9.53
2023-03-17T14:04:24.944Z,10.17
2023-03-17T14:06:55.431Z,10.77
2023-03-17T14:09:39.975Z,10.23
2023-03-17T14:12:17.912Z,10.20
2023-03-17T14:14:48.355Z,10.80
2023-03-17T14:17:29.805Z,10.13
2023-03-17T14:20:27.122Z,10.47
2023-03-17T14:23:10.050Z,9.97
2023-03-17T14:25:40.334Z,9.87
2023-03-17T14:28:12.742Z,10.10
2023-03-17T14:30:40.137Z,10.13
2023-03-17T14:33:22.961Z,10.07
2023-03-17T14:35:53.096Z,9.40
2023-03-17T14:38:26.195Z,9.83
2023-03-17T14:41:27.399Z,9.47
2023-03-17T14:44:00.528Z,9.67
2023-03-17T14:46:38.603Z,9.67
2023-03-17T14:49:25.560Z,9.33
2023-03-17T14:51:53.621Z,9.43
2023-03-17T14:54:25.122Z,9.60
2023-03-17T14:57:02.431Z,9.50
2023-03-17T14:59:35.687Z,10.67
2023-03-17T15:02:24.922Z,9.47
2023-03-17T15:04:58.945Z,9.37
2023-03-17T15:07:44.159Z,9.87
2023-03-17T15:10:20.062Z,9.03
2023-03-17T15:12:52.480Z,8.87
2023-03-17T15:15:26.492Z,9.00
2023-03-17T15:17:59.507Z,9.40
2023-03-17T15:20:34.057Z,9.03
2023-03-17T15:23:18.754Z,8.97
2023-03-17T15:25:49.994Z,8.90
2023-03-17T15:28:21.516Z,8.23
2023-03-17T15:30:51.891Z,8.90
2023-03-17T15:33:28.209Z,8.90
2023-03-17T15:36:02.577Z,11.43
2023-03-17T15:38:41.649Z,8.40
2023-03-17T15:41:09.115Z,8.60
2023-03-17T15:43:40.741Z,8.70
2023-03-17T15:46:15.571Z,7.97
2023-03-17T15:48:43.103Z,8.37
2023-03-17T15:51:11.650Z,8.40
2023-03-17T15:53:40.706Z,8.37
2023-03-17T15:56:16.869Z,8.63
2023-03-17T15:58:43.751Z,8.90
2023-03-17T16:01:14.056Z,9.00
2023-03-17T16:03:49.551Z,8.37
2023-03-17T16:06:22.311Z,8.50
2023-03-17T16:08:50.932Z,8.40
2023-03-17T16:11:20.800Z,8.93
2023-03-17T16:13:48.021Z,8.90
2023-03-17T16:16:25.715Z,9.37
2023-03-17T16:18:53.589Z,9.03
2023-03-17T16:21:22.266Z,9.00
2023-03-17T16:23:50.820Z,8.47
2023-03-17T16:26:18.333Z,9.03
2023-03-17T16:28:47.854Z,8.67
2023-03-17T16:31:25.084Z,8.53
2023-03-17T16:33:53.239Z,8.70
2023-03-17T16:36:22.293Z,8.90
2023-03-17T16:38:52.227Z,8.23
2023-03-17T16:41:24.812Z,9.17
2023-03-17T16:43:57.721Z,8.43
2023-03-17T16:46:27.325Z,8.77
2023-03-17T16:48:56.249Z,8.97
2023-03-17T16:51:25.065Z,8.90
2023-03-17T16:53:51.999Z,9.40
2023-03-17T16:56:21.991Z,8.20
2023-03-17T16:58:50.852Z,8.50
2023-03-17T17:01:24.901Z,8.90
2023-03-17T17:03:53.233Z,9.03
2023-03-17T17:06:21.544Z,8.87
2023-03-17T17:08:52.476Z,9.07
2023-03-17T17:11:20.374Z,8.33
2023-03-17T17:13:49.129Z,8.60
2023-03-17T17:16:30.898Z,8.83
2023-03-17T17:18:59.591Z,9.20
2023-03-17T17:21:28.459Z,8.90
2023-03-17T17:23:56.578Z,9.77
2023-03-17T17:26:24.066Z,10.37
2023-03-17T17:28:51.371Z,10.87
2023-03-17T17:31:18.619Z,11.27
2023-03-17T17:33:47.168Z,11.03
2023-03-17T17:36:16.811Z,11.00
2023-03-17T17:38:44.739Z,10.53
2023-03-17T17:41:12.770Z,10.73
2023-03-17T17:43:40.134Z,10.60
2023-03-17T17:46:14.821Z,10.57
2023-03-17T17:48:41.761Z,11.20
2023-03-17T17:51:10.344Z,10.63
2023-03-17T17:53:37.324Z,11.00
2023-03-17T17:56:05.210Z,10.67
2023-03-17T17:58:32.512Z,10.40
2023-03-17T18:00:59.867Z,10.70
2023-03-17T18:03:27.367Z,10.27
2023-03-17T18:05:58.750Z,10.40
2023-03-17T18:08:26.167Z,10.00
2023-03-17T18:10:56.548Z,11.10
2023-03-17T18:13:23.682Z,9.93
2023-03-17T18:15:50.950Z,10.60
2023-03-17T18:18:17.958Z,10.33
2023-03-17T18:20:44.859Z,10.73
2023-03-17T18:23:12.191Z,11.33
2023-03-17T18:25:41.176Z,11.27
2023-03-17T18:28:08.516Z,12.60
2023-03-17T18:30:35.757Z,12.07
2023-03-17T18:33:14.951Z,12.20
2023-03-17T18:35:42.349Z,12.27
2023-03-17T18:38:11.370Z,12.37
2023-03-17T18:40:38.970Z,12.37
2023-03-17T18:43:06.689Z,11.47
2023-03-17T18:45:34.150Z,12.40
2023-03-17T18:48:01.208Z,12.17
2023-03-17T18:50:28.183Z,12.00
2023-03-17T18:52:57.696Z,12.33
2023-03-17T18:55:24.897Z,12.17
2023-03-17T18:57:57.577Z,13.00
2023-03-17T19:00:28.048Z,12.37
2023-03-17T19:02:55.423Z,13.07
2023-03-17T19:05:23.462Z,13.80
2023-03-17T19:07:57.878Z,13.63
2023-03-17T19:10:25.952Z,13.53
2023-03-17T19:12:55.468Z,13.13
2023-03-17T19:15:22.439Z,12.43
2023-03-17T19:17:50.457Z,13.23
2023-03-17T19:20:18.779Z,13.37
2023-03-17T19:22:46.200Z,13.17
2023-03-17T19:25:13.177Z,13.30
2023-03-17T19:27:40.598Z,15.07
2023-03-17T19:30:08.882Z,13.33
2023-03-17T19:32:37.396Z,12.50
2023-03-17T19:35:04.778Z,13.50
2023-03-17T19:37:32.461Z,12.77
2023-03-17T19:39:59.444Z,12.30
2023-03-17T19:42:26.326Z,12.90
2023-03-17T19:44:53.247Z,12.70
2023-03-17T19:47:20.168Z,13.43
2023-03-17T19:49:47.573Z,12.83
2023-03-17T19:52:14.792Z,13.50
2023-03-17T19:54:46.024Z,12.80
2023-03-17T19:57:14.927Z,12.10
2023-03-17T19:59:42.711Z,12.37
2023-03-17T20:02:13.944Z,13.03
2023-03-17T20:04:42.315Z,12.80
2023-03-17T20:07:11.361Z,12.53
2023-03-17T20:09:39.248Z,12.57
2023-03-17T20:12:06.838Z,13.03
2023-03-17T20:14:34.179Z,12.90
2023-03-17T20:17:02.250Z,13.17
2023-03-17T20:19:40.039Z,13.70
2023-03-17T20:22:07.597Z,14.80
2023-03-17T20:24:35.355Z,14.43
2023-03-17T20:27:18.725Z,14.00
2023-03-17T20:29:51.864Z,14.60
2023-03-17T20:32:19.919Z,14.03
2023-03-17T20:34:47.596Z,13.43
2023-03-17T20:37:14.759Z,13.50
2023-03-17T20:39:42.385Z,12.73
2023-03-17T20:42:12.653Z,12.53
2023-03-17T20:44:41.946Z,12.43
2023-03-17T20:47:10.206Z,12.50
2023-03-17T20:49:38.584Z,12.43
2023-03-17T20:52:06.597Z,11.97
2023-03-17T20:54:33.501Z,11.77
2023-03-17T20:57:01.071Z,12.47
2023-03-17T20:59:28.826Z,11.60
2023-03-17T21:11:11.730Z,11.60
2023-03-17T21:13:38.782Z,11.03
2023-03-17T21:16:06.026Z,11.17
2023-03-17T21:18:33.158Z,11.90
2023-03-17T21:20:59.986Z,11.87
2023-03-17T21:23:27.189Z,11.37
2023-03-17T21:25:57.839Z,11.13
2023-03-17T21:28:25.000Z,11.70
2023-03-17T21:30:54.079Z,11.57
2023-03-17T21:33:21.718Z,11.20
2023-03-17T21:35:48.892Z,11.60
2023-03-17T21:38:16.469Z,12.07
2023-03-17T21:40:43.401Z,11.60
2023-03-17T21:43:11.486Z,11.50
2023-03-17T21:45:39.080Z,11.90
2023-03-17T21:48:08.182Z,10.93
2023-03-17T21:50:35.448Z,11.70
2023-03-17T21:53:02.483Z,11.40
2023-03-17T21:55:29.594Z,11.50
2023-03-17T21:57:56.552Z,10.93
2023-03-17T22:00:25.662Z,11.83
2023-03-17T22:02:55.008Z,10.43
2023-03-17T22:05:22.882Z,10.90
2023-03-17T22:07:49.897Z,11.03
2023-03-17T22:10:18.400Z,11.57
2023-03-17T22:12:45.285Z,11.07
2023-03-17T22:15:12.587Z,10.80
2023-03-17T22:17:39.757Z,11.13
2023-03-17T22:20:09.064Z,10.47
2023-03-17T22:22:36.340Z,10.70
2023-03-17T22:25:06.190Z,11.00
2023-03-17T22:27:33.613Z,10.90
2023-03-17T22:30:02.637Z,11.40
2023-03-17T22:32:30.826Z,10.97
2023-03-17T22:34:58.096Z,10.13
2023-03-17T22:37:25.652Z,11.20
2023-03-17T22:39:52.700Z,10.73
2023-03-17T22:42:19.622Z,10.47
2023-03-17T22:44:46.609Z,10.07
2023-03-17T22:47:13.967Z,10.70
2023-03-17T22:49:40.974Z,10.47
2023-03-17T22:52:08.669Z,10.17
2023-03-17T22:54:35.684Z,10.50
2023-03-17T22:57:04.527Z,9.93
2023-03-17T22:59:32.676Z,10.73
2023-03-17T23:02:00.126Z,10.10
2023-03-17T23:04:27.221Z,9.63
2023-03-17T23:06:56.338Z,9.97
2023-03-17T23:09:23.724Z,10.13
2023-03-17T23:11:51.054Z,10.07
2023-03-17T23:14:18.060Z,9.90
2023-03-17T23:16:45.205Z,9.77
2023-03-17T23:19:14.976Z,9.60
2023-03-17T23:21:42.206Z,9.17
2023-03-17T23:24:09.178Z,10.03
2023-03-17T23:26:37.454Z,9.27
2023-03-17T23:29:07.042Z,8.87
2023-03-17T23:31:34.496Z,9.13
2023-03-17T23:34:01.815Z,9.77
2023-03-17T23:36:31.441Z,8.93
2023-03-17T23:38:58.401Z,9.00
2023-03-17T23:41:27.069Z,10.07
2023-03-17T23:43:53.993Z,9.20
2023-03-17T23:46:22.081Z,9.57
2023-03-17T23:48:49.650Z,8.83
2023-03-17T23:51:17.070Z,9.50
2023-03-17T23:53:44.006Z,9.10
2023-03-17T23:56:13.011Z,9.53
2023-03-17T23:58:43.310Z,8.63
